Seo Young — D7LH — position and weather

sailwx.info

Track history (hours):
 
Tides and Currents Weather Stations Pressure Air Temp Water Temp Dewpoint Dewpoint Depression Visibility Wind Speed Wind Dir Waves Ship Positions

Seo Young

Last reported at 2014-Sep-11 10:33 UTC. Time now 2014-Sep-21 22:10 UTC.
Position N 01°15' E 104°02'.
Warning: this ship's position is 10 days out of date.

Length 121 m; draft 5 m.

Type: Tanker. MMSI: 440036000.

Date/timePositionNaut miles runAvg speedWind from/ knotsBaromVisibWave heightAir tempDewpointWater temp
2014-Sep-11 10:33N 01°15' E 104°02'20 1.0
2014-Sep-10 14:26N 01°14' E 103°42'0 0.0
2014-Sep-09 03:10N 01°14' E 103°42'9 1.9
2014-Sep-08 22:24N 01°11' E 103°50'1011.9
2014-Sep-08 21:34N 01°15' E 103°59'  
2014-Sep-03 17:07N 22°03' E 119°24'1013.0
2014-Sep-03 16:20N 22°11' E 119°31'1213.0
2014-Sep-03 15:24N 22°20' E 119°39'2513.3
2014-Sep-03 13:33N 22°41' E 119°53'1514.3
2014-Sep-03 12:32N 22°56' E 119°53'2813.8
2014-Sep-03 10:28N 23°24' E 119°53'1112.3
2014-Sep-03 09:32N 23°35' E 119°53'1111.0
2014-Sep-03 08:31N 23°46' E 119°54'2210.5
2014-Sep-03 06:25N 24°06' E 120°04'  
Track history (hours):
 
Tides and Currents Weather Stations Pressure Air Temp Water Temp Dewpoint Dewpoint Depression Visibility Wind Speed Wind Dir Waves Ship Positions

Seo Young

Last reported at 2014-Sep-11 10:33 UTC. Time now 2014-Sep-21 22:10 UTC.
Position N 01°15' E 104°02'.
Warning: this ship's position is 10 days out of date.

Length 121 m; draft 5 m.

Type: Tanker. MMSI: 440036000.

Date/timePositionNaut miles runAvg speedWind from/ knotsBaromVisibWave heightAir tempDewpointWater temp
2014-Sep-11 10:33N 01°15' E 104°02'20 1.0
2014-Sep-10 14:26N 01°14' E 103°42'0 0.0
2014-Sep-09 03:10N 01°14' E 103°42'9 1.9
2014-Sep-08 22:24N 01°11' E 103°50'1011.9
2014-Sep-08 21:34N 01°15' E 103°59'  
2014-Sep-03 17:07N 22°03' E 119°24'1013.0
2014-Sep-03 16:20N 22°11' E 119°31'1213.0
2014-Sep-03 15:24N 22°20' E 119°39'2513.3
2014-Sep-03 13:33N 22°41' E 119°53'1514.3
2014-Sep-03 12:32N 22°56' E 119°53'2813.8
2014-Sep-03 10:28N 23°24' E 119°53'1112.3
2014-Sep-03 09:32N 23°35' E 119°53'1111.0
2014-Sep-03 08:31N 23°46' E 119°54'2210.5
2014-Sep-03 06:25N 24°06' E 120°04'  

Dump ship's entire track history